sensor_id;sensor_type;location;lat;lon;timestamp;temperature;humidity
29939;DHT22;16799;50.844;5.304;2022-09-09T00:04:30;16.30;99.90
29939;DHT22;16799;50.844;5.304;2022-09-09T00:09:47;16.10;99.90
29939;DHT22;16799;50.844;5.304;2022-09-09T00:12:51;16.10;99.90
29939;DHT22;16799;50.844;5.304;2022-09-09T00:15:21;16.00;99.90
29939;DHT22;16799;50.844;5.304;2022-09-09T00:17:59;16.10;99.90
29939;DHT22;16799;50.844;5.304;2022-09-09T00:23:14;16.00;99.90
29939;DHT22;16799;50.844;5.304;2022-09-09T00:28:26;15.70;99.90
29939;DHT22;16799;50.844;5.304;2022-09-09T00:30:53;15.60;99.90
29939;DHT22;16799;50.844;5.304;2022-09-09T00:33:21;15.60;99.90
29939;DHT22;16799;50.844;5.304;2022-09-09T00:35:59;15.80;99.90
29939;DHT22;16799;50.844;5.304;2022-09-09T00:38:32;15.70;99.90
29939;DHT22;16799;50.844;5.304;2022-09-09T00:41:11;15.70;99.90
29939;DHT22;16799;50.844;5.304;2022-09-09T00:43:40;15.70;99.90
29939;DHT22;16799;50.844;5.304;2022-09-09T00:55:00;15.70;99.90
29939;DHT22;16799;50.844;5.304;2022-09-09T00:57:34;15.70;99.90
29939;DHT22;16799;50.844;5.304;2022-09-09T01:00:34;15.70;99.90
29939;DHT22;16799;50.844;5.304;2022-09-09T01:03:10;15.70;99.90
29939;DHT22;16799;50.844;5.304;2022-09-09T01:06:13;15.60;99.90
29939;DHT22;16799;50.844;5.304;2022-09-09T01:14:30;15.60;99.90
29939;DHT22;16799;50.844;5.304;2022-09-09T01:16:59;15.60;99.90
29939;DHT22;16799;50.844;5.304;2022-09-09T01:19:47;15.60;99.90
29939;DHT22;16799;50.844;5.304;2022-09-09T01:25:16;15.80;99.90
29939;DHT22;16799;50.844;5.304;2022-09-09T01:27:45;15.80;99.90
29939;DHT22;16799;50.844;5.304;2022-09-09T01:30:15;15.80;99.90
29939;DHT22;16799;50.844;5.304;2022-09-09T01:32:49;15.80;99.90
29939;DHT22;16799;50.844;5.304;2022-09-09T01:35:42;15.90;99.90
29939;DHT22;16799;50.844;5.304;2022-09-09T01:38:09;15.90;99.90
29939;DHT22;16799;50.844;5.304;2022-09-09T01:40:35;16.00;99.90
29939;DHT22;16799;50.844;5.304;2022-09-09T01:43:02;16.10;99.90
29939;DHT22;16799;50.844;5.304;2022-09-09T01:45:29;16.10;99.90
29939;DHT22;16799;50.844;5.304;2022-09-09T01:47:55;16.00;99.90
29939;DHT22;16799;50.844;5.304;2022-09-09T01:50:22;16.00;99.90
29939;DHT22;16799;50.844;5.304;2022-09-09T01:52:51;15.90;99.90
29939;DHT22;16799;50.844;5.304;2022-09-09T01:55:31;16.00;99.90
29939;DHT22;16799;50.844;5.304;2022-09-09T01:59:03;16.10;99.90
29939;DHT22;16799;50.844;5.304;2022-09-09T02:04:10;16.00;99.90
29939;DHT22;16799;50.844;5.304;2022-09-09T02:06:40;16.00;99.90
29939;DHT22;16799;50.844;5.304;2022-09-09T02:09:07;16.10;99.90
29939;DHT22;16799;50.844;5.304;2022-09-09T02:11:36;16.20;99.90
29939;DHT22;16799;50.844;5.304;2022-09-09T02:14:08;16.20;99.90
29939;DHT22;16799;50.844;5.304;2022-09-09T02:16:40;16.10;99.90
29939;DHT22;16799;50.844;5.304;2022-09-09T02:21:38;16.10;99.90
29939;DHT22;16799;50.844;5.304;2022-09-09T02:24:07;16.00;99.90
29939;DHT22;16799;50.844;5.304;2022-09-09T02:26:40;16.00;99.90
29939;DHT22;16799;50.844;5.304;2022-09-09T02:29:16;15.90;99.90
29939;DHT22;16799;50.844;5.304;2022-09-09T02:31:44;15.90;99.90
29939;DHT22;16799;50.844;5.304;2022-09-09T02:34:13;15.90;99.90
29939;DHT22;16799;50.844;5.304;2022-09-09T02:36:42;16.10;99.90
29939;DHT22;16799;50.844;5.304;2022-09-09T02:39:11;16.10;99.90
29939;DHT22;16799;50.844;5.304;2022-09-09T02:41:39;15.90;99.90
29939;DHT22;16799;50.844;5.304;2022-09-09T02:44:12;15.90;99.90
29939;DHT22;16799;50.844;5.304;2022-09-09T02:52:35;15.90;99.90
29939;DHT22;16799;50.844;5.304;2022-09-09T02:55:10;15.90;99.90
29939;DHT22;16799;50.844;5.304;2022-09-09T02:57:37;15.80;99.90
29939;DHT22;16799;50.844;5.304;2022-09-09T03:00:04;15.80;99.90
29939;DHT22;16799;50.844;5.304;2022-09-09T03:02:30;15.70;99.90
29939;DHT22;16799;50.844;5.304;2022-09-09T03:04:56;15.80;99.90
29939;DHT22;16799;50.844;5.304;2022-09-09T03:07:22;15.80;99.90
29939;DHT22;16799;50.844;5.304;2022-09-09T03:09:47;15.90;99.90
29939;DHT22;16799;50.844;5.304;2022-09-09T03:12:14;15.90;99.90
29939;DHT22;16799;50.844;5.304;2022-09-09T03:14:40;16.00;99.90
29939;DHT22;16799;50.844;5.304;2022-09-09T03:17:05;16.00;99.90
29939;DHT22;16799;50.844;5.304;2022-09-09T03:19:31;16.00;99.90
29939;DHT22;16799;50.844;5.304;2022-09-09T03:21:58;15.90;99.90
29939;DHT22;16799;50.844;5.304;2022-09-09T03:24:24;15.90;99.90
29939;DHT22;16799;50.844;5.304;2022-09-09T03:26:50;15.90;99.90
29939;DHT22;16799;50.844;5.304;2022-09-09T03:29:16;15.90;99.90
29939;DHT22;16799;50.844;5.304;2022-09-09T03:31:43;16.00;99.90
29939;DHT22;16799;50.844;5.304;2022-09-09T03:34:09;16.00;99.90
29939;DHT22;16799;50.844;5.304;2022-09-09T03:36:36;16.00;99.90
29939;DHT22;16799;50.844;5.304;2022-09-09T03:39:02;16.10;99.90
29939;DHT22;16799;50.844;5.304;2022-09-09T03:41:29;16.10;99.90
29939;DHT22;16799;50.844;5.304;2022-09-09T03:43:55;16.10;99.90
29939;DHT22;16799;50.844;5.304;2022-09-09T03:46:22;16.20;99.90
29939;DHT22;16799;50.844;5.304;2022-09-09T03:48:48;16.30;99.90
29939;DHT22;16799;50.844;5.304;2022-09-09T03:51:14;16.20;99.90
29939;DHT22;16799;50.844;5.304;2022-09-09T03:53:41;16.10;99.90
29939;DHT22;16799;50.844;5.304;2022-09-09T03:56:07;16.10;99.90
29939;DHT22;16799;50.844;5.304;2022-09-09T03:58:34;16.10;99.90
29939;DHT22;16799;50.844;5.304;2022-09-09T04:01:06;15.90;99.90
29939;DHT22;16799;50.844;5.304;2022-09-09T04:03:33;15.90;99.90
29939;DHT22;16799;50.844;5.304;2022-09-09T04:06:01;16.00;99.90
29939;DHT22;16799;50.844;5.304;2022-09-09T04:08:29;15.90;99.90
29939;DHT22;16799;50.844;5.304;2022-09-09T04:10:56;15.70;99.90
29939;DHT22;16799;50.844;5.304;2022-09-09T04:13:24;15.70;99.90
29939;DHT22;16799;50.844;5.304;2022-09-09T04:15:51;15.80;99.90
29939;DHT22;16799;50.844;5.304;2022-09-09T04:18:18;15.80;99.90
29939;DHT22;16799;50.844;5.304;2022-09-09T04:20:47;15.80;99.90
29939;DHT22;16799;50.844;5.304;2022-09-09T04:23:13;15.80;99.90
29939;DHT22;16799;50.844;5.304;2022-09-09T04:25:44;15.80;99.90
29939;DHT22;16799;50.844;5.304;2022-09-09T04:28:10;15.60;99.90
29939;DHT22;16799;50.844;5.304;2022-09-09T04:30:35;15.60;99.90
29939;DHT22;16799;50.844;5.304;2022-09-09T04:33:01;15.70;99.90
29939;DHT22;16799;50.844;5.304;2022-09-09T04:35:27;15.80;99.90
29939;DHT22;16799;50.844;5.304;2022-09-09T04:37:52;15.70;99.90
29939;DHT22;16799;50.844;5.304;2022-09-09T04:40:18;15.80;99.90
29939;DHT22;16799;50.844;5.304;2022-09-09T04:42:43;15.80;99.90
29939;DHT22;16799;50.844;5.304;2022-09-09T04:45:09;15.80;99.90
29939;DHT22;16799;50.844;5.304;2022-09-09T04:47:36;15.80;99.90
29939;DHT22;16799;50.844;5.304;2022-09-09T04:50:02;15.70;99.90
29939;DHT22;16799;50.844;5.304;2022-09-09T04:52:28;15.60;99.90
29939;DHT22;16799;50.844;5.304;2022-09-09T04:54:53;15.70;99.90
29939;DHT22;16799;50.844;5.304;2022-09-09T04:57:19;15.70;99.90
29939;DHT22;16799;50.844;5.304;2022-09-09T04:59:45;15.80;99.90
29939;DHT22;16799;50.844;5.304;2022-09-09T05:02:11;15.80;99.90
29939;DHT22;16799;50.844;5.304;2022-09-09T05:04:37;15.70;99.90
29939;DHT22;16799;50.844;5.304;2022-09-09T05:07:02;15.70;99.90
29939;DHT22;16799;50.844;5.304;2022-09-09T05:09:28;15.60;99.90
29939;DHT22;16799;50.844;5.304;2022-09-09T05:11:54;15.70;99.90
29939;DHT22;16799;50.844;5.304;2022-09-09T05:14:21;15.90;99.90
29939;DHT22;16799;50.844;5.304;2022-09-09T05:16:46;15.90;99.90
29939;DHT22;16799;50.844;5.304;2022-09-09T05:19:12;15.90;99.90
29939;DHT22;16799;50.844;5.304;2022-09-09T05:21:38;15.80;99.90
29939;DHT22;16799;50.844;5.304;2022-09-09T05:24:04;15.90;99.90
29939;DHT22;16799;50.844;5.304;2022-09-09T05:26:29;16.00;99.90
29939;DHT22;16799;50.844;5.304;2022-09-09T05:28:55;16.10;99.90
29939;DHT22;16799;50.844;5.304;2022-09-09T05:31:22;16.20;99.90
29939;DHT22;16799;50.844;5.304;2022-09-09T05:33:48;16.20;99.90
29939;DHT22;16799;50.844;5.304;2022-09-09T05:36:17;16.20;99.90
29939;DHT22;16799;50.844;5.304;2022-09-09T05:38:43;16.20;99.90
29939;DHT22;16799;50.844;5.304;2022-09-09T05:41:10;16.20;99.90
29939;DHT22;16799;50.844;5.304;2022-09-09T05:43:37;16.30;99.90
29939;DHT22;16799;50.844;5.304;2022-09-09T05:46:05;16.30;99.90
29939;DHT22;16799;50.844;5.304;2022-09-09T05:48:32;16.40;99.90
29939;DHT22;16799;50.844;5.304;2022-09-09T05:51:00;16.40;99.90
29939;DHT22;16799;50.844;5.304;2022-09-09T05:53:26;16.30;99.90
29939;DHT22;16799;50.844;5.304;2022-09-09T05:56:03;16.40;99.90
29939;DHT22;16799;50.844;5.304;2022-09-09T05:58:38;16.60;99.90
29939;DHT22;16799;50.844;5.304;2022-09-09T06:01:04;16.60;99.90
29939;DHT22;16799;50.844;5.304;2022-09-09T06:03:31;16.60;99.90
29939;DHT22;16799;50.844;5.304;2022-09-09T06:05:58;16.60;99.90
29939;DHT22;16799;50.844;5.304;2022-09-09T06:08:24;16.70;99.90
29939;DHT22;16799;50.844;5.304;2022-09-09T06:10:50;16.70;99.90
29939;DHT22;16799;50.844;5.304;2022-09-09T06:13:17;16.50;99.90
29939;DHT22;16799;50.844;5.304;2022-09-09T06:15:52;16.60;99.90
29939;DHT22;16799;50.844;5.304;2022-09-09T06:18:18;16.60;99.90
29939;DHT22;16799;50.844;5.304;2022-09-09T06:21:01;16.70;99.90
29939;DHT22;16799;50.844;5.304;2022-09-09T06:23:29;16.60;99.90
29939;DHT22;16799;50.844;5.304;2022-09-09T06:26:21;16.70;99.90
29939;DHT22;16799;50.844;5.304;2022-09-09T06:28:49;16.80;99.90
29939;DHT22;16799;50.844;5.304;2022-09-09T06:31:17;16.90;99.90
29939;DHT22;16799;50.844;5.304;2022-09-09T06:33:46;16.90;99.90
29939;DHT22;16799;50.844;5.304;2022-09-09T06:36:14;16.90;99.90
29939;DHT22;16799;50.844;5.304;2022-09-09T06:38:43;16.90;99.90
29939;DHT22;16799;50.844;5.304;2022-09-09T06:41:10;17.00;99.90
29939;DHT22;16799;50.844;5.304;2022-09-09T06:43:36;17.10;99.90
29939;DHT22;16799;50.844;5.304;2022-09-09T06:46:12;17.10;99.90
29939;DHT22;16799;50.844;5.304;2022-09-09T06:48:42;17.10;99.90
29939;DHT22;16799;50.844;5.304;2022-09-09T06:51:09;17.30;99.90
29939;DHT22;16799;50.844;5.304;2022-09-09T06:53:37;17.50;99.90
29939;DHT22;16799;50.844;5.304;2022-09-09T06:58:35;18.00;99.90
29939;DHT22;16799;50.844;5.304;2022-09-09T07:01:06;18.00;99.90
29939;DHT22;16799;50.844;5.304;2022-09-09T07:03:32;17.80;99.90
29939;DHT22;16799;50.844;5.304;2022-09-09T07:05:59;17.70;99.90
29939;DHT22;16799;50.844;5.304;2022-09-09T07:08:25;17.70;99.90
29939;DHT22;16799;50.844;5.304;2022-09-09T07:10:51;17.70;99.90
29939;DHT22;16799;50.844;5.304;2022-09-09T07:13:26;17.70;99.90
29939;DHT22;16799;50.844;5.304;2022-09-09T07:15:52;17.60;99.90
29939;DHT22;16799;50.844;5.304;2022-09-09T07:18:19;17.70;99.90
29939;DHT22;16799;50.844;5.304;2022-09-09T07:20:54;17.80;99.90
29939;DHT22;16799;50.844;5.304;2022-09-09T07:23:20;17.80;99.90
29939;DHT22;16799;50.844;5.304;2022-09-09T07:25:46;17.70;99.90
29939;DHT22;16799;50.844;5.304;2022-09-09T07:28:13;17.60;99.90
29939;DHT22;16799;50.844;5.304;2022-09-09T07:30:39;17.70;99.90
29939;DHT22;16799;50.844;5.304;2022-09-09T07:33:05;17.70;99.90
29939;DHT22;16799;50.844;5.304;2022-09-09T07:35:31;17.80;99.90
29939;DHT22;16799;50.844;5.304;2022-09-09T07:37:57;17.90;99.90
29939;DHT22;16799;50.844;5.304;2022-09-09T07:40:24;17.90;99.90
29939;DHT22;16799;50.844;5.304;2022-09-09T07:42:49;17.90;99.90
29939;DHT22;16799;50.844;5.304;2022-09-09T07:45:15;18.00;99.90
29939;DHT22;16799;50.844;5.304;2022-09-09T07:47:41;18.00;99.90
29939;DHT22;16799;50.844;5.304;2022-09-09T07:50:08;18.20;99.90
29939;DHT22;16799;50.844;5.304;2022-09-09T07:52:35;18.20;99.90
29939;DHT22;16799;50.844;5.304;2022-09-09T07:55:01;18.40;99.90
29939;DHT22;16799;50.844;5.304;2022-09-09T07:57:30;18.40;99.90
29939;DHT22;16799;50.844;5.304;2022-09-09T07:59:56;18.40;99.90
29939;DHT22;16799;50.844;5.304;2022-09-09T08:02:22;18.40;99.90
29939;DHT22;16799;50.844;5.304;2022-09-09T08:04:49;18.30;99.90
29939;DHT22;16799;50.844;5.304;2022-09-09T08:07:15;18.00;99.90
29939;DHT22;16799;50.844;5.304;2022-09-09T08:09:41;18.00;99.90
29939;DHT22;16799;50.844;5.304;2022-09-09T08:12:07;18.10;99.90
29939;DHT22;16799;50.844;5.304;2022-09-09T08:14:34;18.00;99.90
29939;DHT22;16799;50.844;5.304;2022-09-09T08:17:00;18.00;99.90
29939;DHT22;16799;50.844;5.304;2022-09-09T08:19:26;18.00;99.90
29939;DHT22;16799;50.844;5.304;2022-09-09T08:21:54;18.10;99.90
29939;DHT22;16799;50.844;5.304;2022-09-09T08:24:19;18.10;99.90
29939;DHT22;16799;50.844;5.304;2022-09-09T08:26:47;17.90;99.90
29939;DHT22;16799;50.844;5.304;2022-09-09T08:29:15;17.80;99.90
29939;DHT22;16799;50.844;5.304;2022-09-09T08:32:01;17.70;99.90
29939;DHT22;16799;50.844;5.304;2022-09-09T08:34:27;17.80;99.90
29939;DHT22;16799;50.844;5.304;2022-09-09T08:36:53;17.80;99.90
29939;DHT22;16799;50.844;5.304;2022-09-09T08:39:20;17.80;99.90
29939;DHT22;16799;50.844;5.304;2022-09-09T08:55:41;17.70;99.90
29939;DHT22;16799;50.844;5.304;2022-09-09T08:57:59;17.90;99.90
29939;DHT22;16799;50.844;5.304;2022-09-09T09:00:48;18.00;99.90
29939;DHT22;16799;50.844;5.304;2022-09-09T09:04:00;18.10;99.90
29939;DHT22;16799;50.844;5.304;2022-09-09T09:06:59;18.10;99.90
29939;DHT22;16799;50.844;5.304;2022-09-09T09:09:54;18.50;99.90
29939;DHT22;16799;50.844;5.304;2022-09-09T09:12:28;18.60;99.90
29939;DHT22;16799;50.844;5.304;2022-09-09T09:14:55;18.70;99.90
29939;DHT22;16799;50.844;5.304;2022-09-09T09:17:25;18.60;99.90
29939;DHT22;16799;50.844;5.304;2022-09-09T09:19:53;18.50;99.90
29939;DHT22;16799;50.844;5.304;2022-09-09T09:25:00;18.20;99.90
29939;DHT22;16799;50.844;5.304;2022-09-09T09:27:36;17.90;99.90
29939;DHT22;16799;50.844;5.304;2022-09-09T09:30:28;17.40;99.90
29939;DHT22;16799;50.844;5.304;2022-09-09T09:33:08;17.50;99.90
29939;DHT22;16799;50.844;5.304;2022-09-09T09:35:39;17.60;99.90
29939;DHT22;16799;50.844;5.304;2022-09-09T09:38:20;17.80;99.90
29939;DHT22;16799;50.844;5.304;2022-09-09T09:40:55;18.00;99.90
29939;DHT22;16799;50.844;5.304;2022-09-09T09:43:31;18.10;99.90
29939;DHT22;16799;50.844;5.304;2022-09-09T09:45:58;18.20;99.90
29939;DHT22;16799;50.844;5.304;2022-09-09T09:48:26;18.30;99.90
29939;DHT22;16799;50.844;5.304;2022-09-09T09:50:57;18.60;99.90
29939;DHT22;16799;50.844;5.304;2022-09-09T09:53:34;18.90;99.90
29939;DHT22;16799;50.844;5.304;2022-09-09T09:58:54;18.90;99.90
29939;DHT22;16799;50.844;5.304;2022-09-09T10:01:27;18.90;99.90
29939;DHT22;16799;50.844;5.304;2022-09-09T10:04:15;18.80;99.90
29939;DHT22;16799;50.844;5.304;2022-09-09T10:06:41;18.60;99.90
29939;DHT22;16799;50.844;5.304;2022-09-09T10:09:28;18.70;99.90
29939;DHT22;16799;50.844;5.304;2022-09-09T10:15:07;18.70;99.90
29939;DHT22;16799;50.844;5.304;2022-09-09T10:20:39;18.40;99.90
29939;DHT22;16799;50.844;5.304;2022-09-09T10:38:04;16.90;99.90
29939;DHT22;16799;50.844;5.304;2022-09-09T10:40:33;16.80;99.90
29939;DHT22;16799;50.844;5.304;2022-09-09T10:46:18;16.80;99.90
29939;DHT22;16799;50.844;5.304;2022-09-09T10:51:36;17.30;99.90
29939;DHT22;16799;50.844;5.304;2022-09-09T10:56:38;17.60;99.90
29939;DHT22;16799;50.844;5.304;2022-09-09T10:59:18;17.70;99.90
29939;DHT22;16799;50.844;5.304;2022-09-09T11:01:47;17.80;99.90
29939;DHT22;16799;50.844;5.304;2022-09-09T11:04:28;17.80;99.90
29939;DHT22;16799;50.844;5.304;2022-09-09T11:06:58;18.00;99.90
29939;DHT22;16799;50.844;5.304;2022-09-09T11:09:33;17.90;99.90
29939;DHT22;16799;50.844;5.304;2022-09-09T11:12:01;18.00;99.90
29939;DHT22;16799;50.844;5.304;2022-09-09T11:14:51;18.00;99.90
29939;DHT22;16799;50.844;5.304;2022-09-09T11:17:23;18.20;99.90
29939;DHT22;16799;50.844;5.304;2022-09-09T11:19:49;18.60;99.90
29939;DHT22;16799;50.844;5.304;2022-09-09T11:24:57;19.20;99.90
29939;DHT22;16799;50.844;5.304;2022-09-09T11:27:57;19.20;99.90
29939;DHT22;16799;50.844;5.304;2022-09-09T11:30:37;19.10;99.90
29939;DHT22;16799;50.844;5.304;2022-09-09T11:36:01;18.80;99.90
29939;DHT22;16799;50.844;5.304;2022-09-09T11:38:50;18.90;99.90
29939;DHT22;16799;50.844;5.304;2022-09-09T11:41:18;19.20;99.90
29939;DHT22;16799;50.844;5.304;2022-09-09T11:43:51;19.50;99.90
29939;DHT22;16799;50.844;5.304;2022-09-09T11:46:20;19.70;99.90
29939;DHT22;16799;50.844;5.304;2022-09-09T11:49:05;19.80;99.90
29939;DHT22;16799;50.844;5.304;2022-09-09T11:51:33;19.70;99.90
29939;DHT22;16799;50.844;5.304;2022-09-09T11:54:01;19.40;99.90
29939;DHT22;16799;50.844;5.304;2022-09-09T11:56:44;19.30;99.90
29939;DHT22;16799;50.844;5.304;2022-09-09T12:01:57;18.90;99.90
29939;DHT22;16799;50.844;5.304;2022-09-09T12:05:02;18.50;99.90
29939;DHT22;16799;50.844;5.304;2022-09-09T12:07:37;17.80;99.90
29939;DHT22;16799;50.844;5.304;2022-09-09T12:10:25;17.30;99.90
29939;DHT22;16799;50.844;5.304;2022-09-09T12:12:51;16.90;99.90
29939;DHT22;16799;50.844;5.304;2022-09-09T12:15:28;16.40;99.90
29939;DHT22;16799;50.844;5.304;2022-09-09T12:17:57;15.90;99.90
29939;DHT22;16799;50.844;5.304;2022-09-09T12:20:38;15.80;99.90
29939;DHT22;16799;50.844;5.304;2022-09-09T12:29:28;15.80;99.90
29939;DHT22;16799;50.844;5.304;2022-09-09T12:32:17;16.10;99.90
29939;DHT22;16799;50.844;5.304;2022-09-09T12:37:35;16.80;99.90
29939;DHT22;16799;50.844;5.304;2022-09-09T12:42:29;17.10;99.90
29939;DHT22;16799;50.844;5.304;2022-09-09T12:45:00;17.30;99.90
29939;DHT22;16799;50.844;5.304;2022-09-09T12:47:38;17.60;99.90
29939;DHT22;16799;50.844;5.304;2022-09-09T12:50:25;17.80;99.90
29939;DHT22;16799;50.844;5.304;2022-09-09T12:52:57;17.90;99.90
29939;DHT22;16799;50.844;5.304;2022-09-09T12:55:32;18.10;99.90
29939;DHT22;16799;50.844;5.304;2022-09-09T12:58:01;18.80;99.90
29939;DHT22;16799;50.844;5.304;2022-09-09T13:00:30;19.40;99.90
29939;DHT22;16799;50.844;5.304;2022-09-09T13:02:58;19.80;99.90
29939;DHT22;16799;50.844;5.304;2022-09-09T13:05:35;20.00;99.90
29939;DHT22;16799;50.844;5.304;2022-09-09T13:08:08;20.00;99.90
29939;DHT22;16799;50.844;5.304;2022-09-09T13:13:25;20.30;99.90
29939;DHT22;16799;50.844;5.304;2022-09-09T13:15:53;20.50;99.90
29939;DHT22;16799;50.844;5.304;2022-09-09T13:18:28;21.10;99.90
29939;DHT22;16799;50.844;5.304;2022-09-09T13:20:54;21.50;99.90
29939;DHT22;16799;50.844;5.304;2022-09-09T13:23:33;21.20;99.90
29939;DHT22;16799;50.844;5.304;2022-09-09T13:26:05;21.40;99.90
29939;DHT22;16799;50.844;5.304;2022-09-09T13:28:33;22.50;99.90
29939;DHT22;16799;50.844;5.304;2022-09-09T13:31:05;22.50;99.90
29939;DHT22;16799;50.844;5.304;2022-09-09T13:33:37;21.90;99.90
29939;DHT22;16799;50.844;5.304;2022-09-09T13:36:05;21.30;99.90
29939;DHT22;16799;50.844;5.304;2022-09-09T13:38:55;20.70;99.90
29939;DHT22;16799;50.844;5.304;2022-09-09T13:41:27;20.20;99.90
29939;DHT22;16799;50.844;5.304;2022-09-09T13:43:54;19.80;99.90
29939;DHT22;16799;50.844;5.304;2022-09-09T13:49:00;21.40;99.90
29939;DHT22;16799;50.844;5.304;2022-09-09T13:51:41;21.90;99.90
29939;DHT22;16799;50.844;5.304;2022-09-09T13:54:11;21.20;99.90
29939;DHT22;16799;50.844;5.304;2022-09-09T13:56:38;21.10;99.90
29939;DHT22;16799;50.844;5.304;2022-09-09T13:59:08;21.10;99.90
29939;DHT22;16799;50.844;5.304;2022-09-09T14:01:35;22.00;99.90
29939;DHT22;16799;50.844;5.304;2022-09-09T14:04:03;22.10;99.90
29939;DHT22;16799;50.844;5.304;2022-09-09T14:06:30;22.00;99.90
29939;DHT22;16799;50.844;5.304;2022-09-09T14:08:57;22.30;99.90
29939;DHT22;16799;50.844;5.304;2022-09-09T14:11:23;22.80;99.90
29939;DHT22;16799;50.844;5.304;2022-09-09T14:13:48;23.70;99.90
29939;DHT22;16799;50.844;5.304;2022-09-09T14:16:17;23.10;99.90
29939;DHT22;16799;50.844;5.304;2022-09-09T14:18:44;23.00;99.90
29939;DHT22;16799;50.844;5.304;2022-09-09T14:21:10;23.10;99.90
29939;DHT22;16799;50.844;5.304;2022-09-09T14:23:36;22.70;99.90
29939;DHT22;16799;50.844;5.304;2022-09-09T14:26:04;22.30;99.90
29939;DHT22;16799;50.844;5.304;2022-09-09T14:28:29;22.00;99.90
29939;DHT22;16799;50.844;5.304;2022-09-09T14:30:59;21.70;99.90
29939;DHT22;16799;50.844;5.304;2022-09-09T14:33:26;21.70;99.90
29939;DHT22;16799;50.844;5.304;2022-09-09T14:35:57;22.10;99.90
29939;DHT22;16799;50.844;5.304;2022-09-09T14:38:22;22.90;98.20
29939;DHT22;16799;50.844;5.304;2022-09-09T14:40:48;22.60;99.30
29939;DHT22;16799;50.844;5.304;2022-09-09T14:43:14;21.70;99.90
29939;DHT22;16799;50.844;5.304;2022-09-09T14:45:40;21.30;99.90
29939;DHT22;16799;50.844;5.304;2022-09-09T14:48:05;21.30;99.90
29939;DHT22;16799;50.844;5.304;2022-09-09T14:50:31;21.50;99.90
29939;DHT22;16799;50.844;5.304;2022-09-09T14:52:57;22.20;99.90
29939;DHT22;16799;50.844;5.304;2022-09-09T14:55:22;22.50;99.90
29939;DHT22;16799;50.844;5.304;2022-09-09T14:57:48;22.50;99.90
29939;DHT22;16799;50.844;5.304;2022-09-09T15:00:14;21.90;99.90
29939;DHT22;16799;50.844;5.304;2022-09-09T15:02:41;21.90;99.90
29939;DHT22;16799;50.844;5.304;2022-09-09T15:05:07;22.60;99.20
29939;DHT22;16799;50.844;5.304;2022-09-09T15:07:33;22.30;99.10
29939;DHT22;16799;50.844;5.304;2022-09-09T15:09:59;21.80;99.90
29939;DHT22;16799;50.844;5.304;2022-09-09T15:12:25;21.30;99.90
29939;DHT22;16799;50.844;5.304;2022-09-09T15:14:50;21.30;99.90
29939;DHT22;16799;50.844;5.304;2022-09-09T15:17:17;21.40;99.90
29939;DHT22;16799;50.844;5.304;2022-09-09T15:19:43;21.40;99.90
29939;DHT22;16799;50.844;5.304;2022-09-09T15:22:08;21.30;99.90
29939;DHT22;16799;50.844;5.304;2022-09-09T15:24:34;21.20;99.90
29939;DHT22;16799;50.844;5.304;2022-09-09T15:27:01;21.00;99.90
29939;DHT22;16799;50.844;5.304;2022-09-09T15:29:27;21.10;99.90
29939;DHT22;16799;50.844;5.304;2022-09-09T15:31:56;21.30;99.90
29939;DHT22;16799;50.844;5.304;2022-09-09T15:34:22;21.40;99.90
29939;DHT22;16799;50.844;5.304;2022-09-09T15:36:48;21.30;99.90
29939;DHT22;16799;50.844;5.304;2022-09-09T15:39:15;21.00;99.90
29939;DHT22;16799;50.844;5.304;2022-09-09T15:41:45;21.10;99.90
29939;DHT22;16799;50.844;5.304;2022-09-09T15:44:12;21.10;99.90
29939;DHT22;16799;50.844;5.304;2022-09-09T15:46:46;21.20;99.90
29939;DHT22;16799;50.844;5.304;2022-09-09T15:49:21;21.30;99.90
29939;DHT22;16799;50.844;5.304;2022-09-09T15:51:55;21.20;99.90
29939;DHT22;16799;50.844;5.304;2022-09-09T15:54:22;21.30;99.90
29939;DHT22;16799;50.844;5.304;2022-09-09T15:56:57;21.20;99.90
29939;DHT22;16799;50.844;5.304;2022-09-09T15:59:24;21.20;99.90
29939;DHT22;16799;50.844;5.304;2022-09-09T16:01:50;21.00;99.90
29939;DHT22;16799;50.844;5.304;2022-09-09T16:04:21;20.90;99.90
29939;DHT22;16799;50.844;5.304;2022-09-09T16:07:01;20.80;99.90
29939;DHT22;16799;50.844;5.304;2022-09-09T16:09:29;20.70;99.90
29939;DHT22;16799;50.844;5.304;2022-09-09T16:11:59;20.30;99.90
29939;DHT22;16799;50.844;5.304;2022-09-09T16:14:26;19.70;99.90
29939;DHT22;16799;50.844;5.304;2022-09-09T16:16:52;19.20;99.90
29939;DHT22;16799;50.844;5.304;2022-09-09T16:19:18;18.80;99.90
29939;DHT22;16799;50.844;5.304;2022-09-09T16:21:48;18.50;99.90
29939;DHT22;16799;50.844;5.304;2022-09-09T16:24:17;18.40;99.90
29939;DHT22;16799;50.844;5.304;2022-09-09T16:26:47;18.40;99.90
29939;DHT22;16799;50.844;5.304;2022-09-09T16:29:14;18.30;99.90
29939;DHT22;16799;50.844;5.304;2022-09-09T16:31:40;18.30;99.90
29939;DHT22;16799;50.844;5.304;2022-09-09T16:34:07;18.30;99.90
29939;DHT22;16799;50.844;5.304;2022-09-09T16:36:35;18.20;99.90
29939;DHT22;16799;50.844;5.304;2022-09-09T16:39:04;18.20;99.90
29939;DHT22;16799;50.844;5.304;2022-09-09T16:41:31;18.20;99.90
29939;DHT22;16799;50.844;5.304;2022-09-09T16:44:02;18.20;99.90
29939;DHT22;16799;50.844;5.304;2022-09-09T16:46:29;18.30;99.90
29939;DHT22;16799;50.844;5.304;2022-09-09T16:49:01;18.50;99.90
29939;DHT22;16799;50.844;5.304;2022-09-09T16:51:34;18.60;99.90
29939;DHT22;16799;50.844;5.304;2022-09-09T16:54:01;18.60;99.90
29939;DHT22;16799;50.844;5.304;2022-09-09T16:56:29;18.70;99.90
29939;DHT22;16799;50.844;5.304;2022-09-09T16:59:00;18.60;99.90
29939;DHT22;16799;50.844;5.304;2022-09-09T17:01:28;18.60;99.90
29939;DHT22;16799;50.844;5.304;2022-09-09T17:03:59;18.50;99.90
29939;DHT22;16799;50.844;5.304;2022-09-09T17:06:27;18.40;99.90
29939;DHT22;16799;50.844;5.304;2022-09-09T17:08:59;18.40;99.90
29939;DHT22;16799;50.844;5.304;2022-09-09T17:11:27;18.40;99.90
29939;DHT22;16799;50.844;5.304;2022-09-09T17:13:54;18.40;99.90
29939;DHT22;16799;50.844;5.304;2022-09-09T17:16:22;18.30;99.90
29939;DHT22;16799;50.844;5.304;2022-09-09T17:18:49;18.30;99.90
29939;DHT22;16799;50.844;5.304;2022-09-09T17:21:19;18.30;99.90
29939;DHT22;16799;50.844;5.304;2022-09-09T17:23:45;18.50;99.90
29939;DHT22;16799;50.844;5.304;2022-09-09T17:26:14;18.40;99.90
29939;DHT22;16799;50.844;5.304;2022-09-09T17:28:41;18.40;99.90
29939;DHT22;16799;50.844;5.304;2022-09-09T17:31:09;18.30;99.90
29939;DHT22;16799;50.844;5.304;2022-09-09T17:33:40;18.20;99.90
29939;DHT22;16799;50.844;5.304;2022-09-09T17:36:24;18.20;99.90
29939;DHT22;16799;50.844;5.304;2022-09-09T17:38:51;18.30;99.90
29939;DHT22;16799;50.844;5.304;2022-09-09T17:41:21;18.30;99.90
29939;DHT22;16799;50.844;5.304;2022-09-09T17:43:47;18.40;99.90
29939;DHT22;16799;50.844;5.304;2022-09-09T17:46:18;18.40;99.90